San Jon, NM (88434)

8:31 AM MDT on July 29, 2016 (GMT -0600)
Tucumcari Municipal | | Change Station

Elev 4065 ft 35.18 °N, 103.60 °W | Updated 38 minutes ago

Partly Cloudy
Partly Cloudy
80 °F
Feels Like 81 °F
N
9
Wind Variable Wind from SSW

Today
High -- | Low -- °F
--% Chance of Precip.
Yesterday
High -- | Low -- °F
Precip. -- in
Pressure 29.92 in
Visibility 10.0 miles
Clouds Few 11000 ft
Heat Index 81 °F
Dew Point 60 °F
Humidity 50%
Rainfall 0.02 in
Snow Depth Not available.
6:00 AM 7:58 PM
Waning Crescent, 21% visible
METAR KTCC 291353Z AUTO 21008KT 10SM FEW110 27/16 A3013 RMK AO2 SLP130 T02670156
Pressure 29.92 in
Visibility 10.0 miles
Clouds Few 11000 ft
Heat Index 81 °F
Dew Point 60 °F
Humidity 50%
Rainfall 0.02 in
Snow Depth Not available.
6:00 AM 7:58 PM
Waning Crescent, 21% visible
METAR KTCC 291353Z AUTO 21008KT 10SM FEW110 27/16 A3013 RMK AO2 SLP130 T02670156

10-Day Weather Forecast

Almanac

Astronomy

Jul. 29, 2016 Rise Set
Actual Time
Civil Twilight
Nautical Twilight
Astronomical Twilight
Moon
Length of Visible Light
Length of Day
Tomorrow will be .
, % of the Moon is Illuminated

Today's Extremes

State Highs State Lows

Community

WunderPhotos

Upload Photos

1,928,342 photos uploaded!

WunderBlog® & News

Nearby

Air Quality

  Air Quality AQ Index Pollutant
Not available.

Snow Depth

Station Depth Elevation

Earthquake Activity

City Distance Mag. Time & Date
Minimum magnitude displayed is 2.5.

Coastal Water Temperatures

Place Temperature

Stations

Nearby Weather Stations

Station Location Temp. Windchill Dew Point Humidity Wind Precip. Elev Updated Type
                   

Watches & Warnings

There are currently no watches in effect.